createdAt,value
2022-09-10T00:00:38.278Z,19.10
2022-09-10T00:03:05.047Z,22.60
2022-09-10T00:05:39.729Z,19.00
2022-09-10T00:08:07.033Z,17.60
2022-09-10T00:10:44.058Z,18.50
2022-09-10T00:13:11.951Z,20.30
2022-09-10T00:15:50.081Z,18.10
2022-09-10T00:18:19.161Z,19.30
2022-09-10T00:20:48.805Z,18.50
2022-09-10T00:23:17.446Z,20.30
2022-09-10T00:25:44.000Z,16.80
2022-09-10T00:28:10.754Z,17.90
2022-09-10T00:30:45.256Z,19.30
2022-09-10T00:33:12.933Z,18.30
2022-09-10T00:35:40.456Z,22.40
2022-09-10T00:38:08.340Z,23.80
2022-09-10T00:40:35.941Z,24.50
2022-09-10T00:43:03.194Z,24.20
2022-09-10T00:45:32.625Z,27.50
2022-09-10T00:48:06.946Z,26.10
2022-09-10T00:50:39.300Z,27.30
2022-09-10T00:53:09.147Z,29.70
2022-09-10T00:55:39.445Z,29.80
2022-09-10T00:58:08.278Z,24.30
2022-09-10T01:00:35.021Z,27.70
2022-09-10T01:03:03.265Z,24.80
2022-09-10T01:05:29.885Z,26.60
2022-09-10T01:07:56.476Z,22.80
2022-09-10T01:10:27.929Z,22.10
2022-09-10T01:13:25.412Z,22.80
2022-09-10T01:16:13.507Z,22.80
2022-09-10T01:19:17.229Z,22.30
2022-09-10T01:22:13.021Z,21.10
2022-09-10T01:24:54.652Z,22.70
2022-09-10T01:27:44.296Z,21.80
2022-09-10T01:30:19.508Z,25.10
2022-09-10T01:33:27.894Z,25.40
2022-09-10T01:36:00.056Z,26.20
2022-09-10T01:38:35.600Z,23.60
2022-09-10T01:41:02.464Z,21.90
2022-09-10T01:43:29.002Z,21.00
2022-09-10T01:46:25.754Z,22.70
2022-09-10T01:49:25.629Z,25.00
2022-09-10T01:52:07.019Z,26.80
2022-09-10T01:54:54.697Z,26.10
2022-09-10T01:57:41.983Z,24.80
2022-09-10T02:00:16.480Z,25.00
2022-09-10T02:02:48.717Z,24.60
2022-09-10T02:05:18.277Z,22.90
2022-09-10T02:07:46.817Z,24.40
2022-09-10T02:10:13.560Z,25.00
2022-09-10T02:12:40.147Z,23.90
2022-09-10T02:15:08.850Z,23.60
2022-09-10T02:17:39.328Z,25.40
2022-09-10T02:20:11.800Z,24.20
2022-09-10T02:22:42.436Z,23.40
2022-09-10T02:25:09.798Z,29.00
2022-09-10T02:27:36.786Z,25.50
2022-09-10T02:30:04.719Z,29.60
2022-09-10T02:32:31.267Z,26.60
2022-09-10T02:34:57.727Z,24.80
2022-09-10T02:37:24.917Z,29.90
2022-09-10T02:39:51.422Z,24.50
2022-09-10T02:42:18.138Z,24.90
2022-09-10T02:44:44.877Z,25.00
2022-09-10T02:47:11.716Z,23.40
2022-09-10T02:49:38.462Z,21.70
2022-09-10T02:52:05.102Z,22.30
2022-09-10T02:54:31.637Z,22.00
2022-09-10T02:56:58.184Z,21.00
2022-09-10T02:59:25.025Z,23.70
2022-09-10T03:01:51.727Z,20.90
2022-09-10T03:04:18.277Z,22.00
2022-09-10T03:06:44.809Z,22.30
2022-09-10T03:09:11.480Z,21.60
2022-09-10T03:11:38.031Z,22.00
2022-09-10T03:14:04.494Z,23.00
2022-09-10T03:16:31.130Z,20.90
2022-09-10T03:18:58.056Z,22.60
2022-09-10T03:21:24.761Z,20.80
2022-09-10T03:23:52.982Z,19.30
2022-09-10T03:26:21.798Z,22.30
2022-09-10T03:28:48.984Z,25.00
2022-09-10T03:31:16.631Z,20.00
2022-09-10T03:33:43.251Z,21.00
2022-09-10T03:36:11.198Z,23.10
2022-09-10T03:38:37.762Z,21.50
2022-09-10T03:41:04.384Z,21.10
2022-09-10T03:43:31.127Z,18.90
2022-09-10T03:45:58.045Z,24.90
2022-09-10T03:48:24.694Z,23.00
2022-09-10T03:50:51.397Z,31.40
2022-09-10T03:53:19.356Z,27.20
2022-09-10T03:55:50.638Z,29.90
2022-09-10T03:58:18.115Z,26.90
2022-09-10T04:00:45.358Z,31.20
2022-09-10T04:03:12.351Z,31.50
2022-09-10T04:05:40.173Z,33.60
2022-09-10T04:08:06.760Z,34.80
2022-09-10T04:10:34.019Z,38.80
2022-09-10T04:13:00.554Z,37.20
2022-09-10T04:15:27.400Z,37.20
2022-09-10T04:17:53.938Z,34.40
2022-09-10T04:20:24.753Z,38.90
2022-09-10T04:22:51.458Z,40.10
2022-09-10T04:25:19.903Z,34.60
2022-09-10T04:27:47.618Z,35.50
2022-09-10T04:30:14.620Z,34.80
2022-09-10T04:32:41.363Z,39.20
2022-09-10T04:35:08.826Z,37.70
2022-09-10T04:37:35.571Z,34.50
2022-09-10T04:40:02.613Z,34.30
2022-09-10T04:42:29.772Z,38.20
2022-09-10T04:44:56.209Z,35.00
2022-09-10T04:47:22.748Z,35.00
2022-09-10T04:49:49.500Z,37.00
2022-09-10T04:52:20.128Z,35.80
2022-09-10T04:54:46.670Z,36.70
2022-09-10T04:57:13.431Z,32.50
2022-09-10T04:59:39.863Z,32.30
2022-09-10T05:02:06.573Z,30.00
2022-09-10T05:04:33.353Z,32.80
2022-09-10T05:06:59.878Z,34.60
2022-09-10T05:09:26.619Z,28.50
2022-09-10T05:11:53.158Z,32.90
2022-09-10T05:14:19.698Z,31.80
2022-09-10T05:16:46.213Z,32.10
2022-09-10T05:19:12.772Z,32.60
2022-09-10T05:21:39.247Z,34.90
2022-09-10T05:24:06.368Z,36.80
2022-09-10T05:26:32.904Z,33.20
2022-09-10T05:28:59.441Z,29.20
2022-09-10T05:31:26.022Z,33.20
2022-09-10T05:33:52.679Z,37.20
2022-09-10T05:36:19.622Z,39.60
2022-09-10T05:38:46.322Z,39.50
2022-09-10T05:41:13.165Z,35.10
2022-09-10T05:43:39.700Z,34.70
2022-09-10T05:46:06.266Z,36.50
2022-09-10T05:48:32.943Z,30.80
2022-09-10T05:50:59.522Z,31.00
2022-09-10T05:53:26.018Z,29.00
2022-09-10T05:55:52.602Z,31.60
2022-09-10T05:58:19.089Z,28.50
2022-09-10T06:00:45.583Z,26.70
2022-09-10T06:03:12.194Z,26.10
2022-09-10T06:05:38.969Z,24.60
2022-09-10T06:08:08.704Z,30.30
2022-09-10T06:10:35.835Z,26.40
2022-09-10T06:13:02.438Z,29.90
2022-09-10T06:15:28.893Z,29.90
2022-09-10T06:17:55.389Z,33.40
2022-09-10T06:20:21.889Z,28.20
2022-09-10T06:22:48.489Z,26.70
2022-09-10T06:25:15.273Z,24.80
2022-09-10T06:27:41.708Z,26.00
2022-09-10T06:30:08.756Z,23.50
2022-09-10T06:32:35.232Z,27.00
2022-09-10T06:35:01.836Z,31.40
2022-09-10T06:37:28.373Z,31.70
2022-09-10T06:39:54.881Z,26.70
2022-09-10T06:42:21.435Z,24.90
2022-09-10T06:44:48.086Z,27.50
2022-09-10T06:50:01.208Z,25.20
2022-09-10T06:52:30.647Z,24.00
2022-09-10T06:54:57.493Z,22.40
2022-09-10T06:57:26.860Z,20.90
2022-09-10T06:59:53.442Z,22.50
2022-09-10T07:02:19.955Z,21.60
2022-09-10T07:04:46.522Z,21.90
2022-09-10T07:07:13.267Z,23.20
2022-09-10T07:09:39.836Z,22.80
2022-09-10T07:12:06.421Z,23.00
2022-09-10T07:14:32.987Z,20.90
2022-09-10T07:16:59.526Z,21.60
2022-09-10T07:19:25.978Z,20.40
2022-09-10T07:21:52.600Z,21.60
2022-09-10T07:24:19.070Z,21.30
2022-09-10T07:26:45.510Z,19.50
2022-09-10T07:29:12.217Z,16.90
2022-09-10T07:31:38.754Z,19.80
2022-09-10T07:34:05.455Z,13.30
2022-09-10T07:36:32.351Z,14.00
2022-09-10T07:38:59.320Z,13.10
2022-09-10T07:41:25.834Z,15.10
2022-09-10T07:43:54.067Z,13.90
2022-09-10T07:46:21.986Z,13.80
2022-09-10T07:48:53.582Z,12.50
2022-09-10T07:51:20.185Z,14.50
2022-09-10T07:53:50.608Z,12.40
2022-09-10T07:58:44.105Z,14.30
2022-09-10T08:01:12.146Z,14.40
2022-09-10T08:03:40.118Z,18.10
2022-09-10T08:06:09.197Z,17.00
2022-09-10T08:08:38.277Z,15.90
2022-09-10T08:11:11.971Z,17.10
2022-09-10T08:13:40.752Z,16.50
2022-09-10T08:16:13.816Z,17.80
2022-09-10T08:18:41.063Z,21.70
2022-09-10T08:21:08.199Z,16.90
2022-09-10T08:23:35.665Z,16.40
2022-09-10T08:26:02.353Z,16.40
2022-09-10T08:28:28.887Z,16.90
2022-09-10T08:31:03.200Z,17.90
2022-09-10T08:33:31.126Z,17.00
2022-09-10T08:35:59.688Z,19.10
2022-09-10T08:38:30.585Z,17.40
2022-09-10T08:43:35.211Z,16.50
2022-09-10T08:46:05.262Z,18.80
2022-09-10T08:48:36.578Z,18.80
2022-09-10T08:51:17.769Z,15.50
2022-09-10T08:53:54.094Z,17.40
2022-09-10T08:56:23.498Z,16.90
2022-09-10T08:59:04.781Z,16.70
2022-09-10T09:01:50.251Z,17.40
2022-09-10T09:04:32.242Z,17.60
2022-09-10T09:07:05.124Z,18.60
2022-09-10T09:09:31.855Z,18.30
2022-09-10T09:12:03.357Z,16.90
2022-09-10T09:14:57.171Z,16.10
2022-09-10T09:17:38.534Z,17.20
2022-09-10T09:20:16.057Z,17.30
2022-09-10T09:23:02.401Z,18.00
2022-09-10T09:25:38.390Z,16.40
2022-09-10T09:28:16.973Z,20.10
2022-09-10T09:30:47.490Z,16.10
2022-09-10T09:33:18.382Z,17.20
2022-09-10T09:35:55.706Z,15.20
2022-09-10T09:38:30.606Z,14.70
2022-09-10T09:41:03.123Z,14.10
2022-09-10T09:44:03.321Z,14.00
2022-09-10T09:46:29.958Z,15.30
2022-09-10T09:48:58.984Z,15.50
2022-09-10T09:51:26.008Z,15.60
2022-09-10T09:54:25.724Z,13.40
2022-09-10T09:56:51.701Z,13.60
2022-09-10T09:59:28.531Z,13.90
2022-09-10T10:02:00.525Z,14.20
2022-09-10T10:04:28.461Z,13.10
2022-09-10T10:06:57.371Z,13.50
2022-09-10T10:09:31.233Z,13.30
2022-09-10T10:12:03.587Z,13.30
2022-09-10T10:14:43.198Z,10.80
2022-09-10T10:17:24.995Z,11.50
2022-09-10T10:19:57.484Z,12.90
2022-09-10T10:22:26.235Z,12.40
2022-09-10T10:24:53.529Z,11.90
2022-09-10T10:27:26.011Z,11.20
2022-09-10T10:29:58.384Z,12.10
2022-09-10T10:32:42.439Z,12.90
2022-09-10T10:35:15.136Z,12.30
2022-09-10T10:37:56.925Z,16.60
2022-09-10T10:40:36.804Z,13.80
2022-09-10T10:43:09.223Z,14.80
2022-09-10T10:46:01.208Z,14.80
2022-09-10T10:48:41.432Z,15.10
2022-09-10T10:51:08.196Z,17.20
2022-09-10T10:54:16.408Z,16.60
2022-09-10T10:57:08.751Z,19.90
2022-09-10T10:59:35.393Z,20.10
2022-09-10T11:02:22.361Z,18.20
2022-09-10T11:04:54.748Z,20.30
2022-09-10T11:07:29.724Z,21.30
2022-09-10T11:10:39.202Z,24.20
2022-09-10T11:13:13.187Z,25.20
2022-09-10T11:15:58.089Z,26.00
2022-09-10T11:18:34.978Z,13.70
2022-09-10T11:21:10.705Z,9.30
2022-09-10T11:23:45.783Z,8.40
2022-09-10T11:26:31.734Z,9.10
2022-09-10T11:29:21.317Z,8.60
2022-09-10T11:31:59.279Z,8.40
2022-09-10T11:34:47.804Z,8.10
2022-09-10T11:37:20.830Z,6.80
2022-09-10T11:39:51.368Z,7.50
2022-09-10T11:42:42.013Z,7.40
2022-09-10T11:45:24.226Z,8.40
2022-09-10T11:47:57.827Z,7.00
2022-09-10T11:50:40.236Z,6.90
2022-09-10T11:53:09.850Z,7.20
2022-09-10T11:56:19.907Z,6.80
2022-09-10T11:58:55.269Z,7.10
2022-09-10T12:01:50.784Z,7.10
2022-09-10T12:04:54.632Z,6.90
2022-09-10T12:07:29.210Z,8.30
2022-09-10T12:09:58.514Z,7.10
2022-09-10T12:12:45.184Z,11.60
2022-09-10T12:15:19.655Z,7.40
2022-09-10T12:18:04.767Z,9.30
2022-09-10T12:20:41.450Z,8.70
2022-09-10T12:23:17.163Z,7.30
2022-09-10T12:25:43.860Z,7.60
2022-09-10T12:28:42.390Z,8.30
2022-09-10T12:31:20.402Z,9.30
2022-09-10T12:33:47.048Z,8.70
2022-09-10T12:36:22.386Z,7.50
2022-09-10T12:38:55.324Z,6.30
2022-09-10T12:41:24.779Z,7.40
2022-09-10T12:44:01.805Z,6.20
2022-09-10T12:46:29.644Z,5.20
2022-09-10T12:48:56.082Z,5.70
2022-09-10T12:51:57.627Z,5.30
2022-09-10T12:54:41.685Z,6.80
2022-09-10T12:57:32.080Z,4.80
2022-09-10T13:00:20.067Z,4.70
2022-09-10T13:03:05.085Z,3.80
2022-09-10T13:05:47.224Z,4.80
2022-09-10T13:08:23.063Z,4.30
2022-09-10T13:11:12.573Z,4.00
2022-09-10T13:13:48.601Z,6.40
2022-09-10T13:16:27.431Z,2.90
2022-09-10T13:19:12.648Z,2.70
2022-09-10T13:21:39.146Z,3.80
2022-09-10T13:24:34.292Z,3.40
2022-09-10T13:27:13.187Z,3.00
2022-09-10T13:29:43.003Z,2.90
2022-09-10T13:32:53.679Z,2.40
2022-09-10T13:35:45.513Z,2.80
2022-09-10T13:38:14.663Z,2.90
2022-09-10T13:41:18.725Z,5.00
2022-09-10T13:44:10.671Z,3.80
2022-09-10T13:46:42.694Z,4.10
2022-09-10T13:49:21.337Z,2.90
2022-09-10T13:51:52.517Z,2.90
2022-09-10T13:54:25.097Z,2.90
2022-09-10T13:56:52.614Z,2.30
2022-09-10T13:59:29.751Z,2.80
2022-09-10T14:01:57.323Z,4.30
2022-09-10T14:04:35.376Z,3.20
2022-09-10T14:07:15.282Z,4.20
2022-09-10T14:09:45.046Z,4.30
2022-09-10T14:12:12.599Z,4.80
2022-09-10T14:14:42.777Z,4.80
2022-09-10T14:17:15.801Z,5.00
2022-09-10T14:19:55.635Z,3.40
2022-09-10T14:22:22.692Z,4.70
2022-09-10T14:24:56.601Z,5.30
2022-09-10T14:27:39.763Z,4.00
2022-09-10T14:30:18.472Z,4.70
2022-09-10T14:32:45.129Z,5.50
2022-09-10T14:35:37.504Z,9.30
2022-09-10T14:38:20.689Z,8.40
2022-09-10T14:40:47.743Z,7.90
2022-09-10T14:43:16.489Z,6.70
2022-09-10T14:45:45.235Z,6.40
2022-09-10T14:48:32.048Z,6.20
2022-09-10T14:51:19.426Z,5.20
2022-09-10T14:53:50.933Z,5.40
2022-09-10T14:56:26.736Z,5.00
2022-09-10T14:58:59.280Z,6.00
2022-09-10T15:01:25.838Z,5.80
2022-09-10T15:03:52.871Z,5.90
2022-09-10T15:06:21.985Z,7.50
2022-09-10T15:08:52.104Z,8.70
2022-09-10T15:11:26.269Z,6.30
2022-09-10T15:13:53.378Z,6.00
2022-09-10T15:16:19.846Z,7.00
2022-09-10T15:18:46.362Z,6.80
2022-09-10T15:21:15.076Z,6.20
2022-09-10T15:23:42.215Z,6.70
2022-09-10T15:26:12.832Z,10.00
2022-09-10T15:28:39.685Z,9.50
2022-09-10T15:31:06.930Z,5.60
2022-09-10T15:33:37.150Z,4.90
2022-09-10T15:36:04.127Z,5.00
2022-09-10T15:38:30.663Z,5.20
2022-09-10T15:41:15.204Z,5.20
2022-09-10T15:43:43.337Z,7.40
2022-09-10T15:46:15.464Z,7.10
2022-09-10T15:48:43.281Z,6.60
2022-09-10T15:51:16.792Z,9.50
2022-09-10T15:53:44.100Z,10.10
2022-09-10T15:56:12.032Z,8.90
2022-09-10T15:58:39.328Z,10.50
2022-09-10T16:01:09.475Z,10.00
2022-09-10T16:03:36.299Z,11.80
2022-09-10T16:06:05.372Z,8.30
2022-09-10T16:08:32.346Z,10.00
2022-09-10T16:10:59.445Z,10.80
2022-09-10T16:13:26.867Z,7.90
2022-09-10T16:16:02.085Z,7.60
2022-09-10T16:18:31.502Z,9.60
2022-09-10T16:21:16.305Z,10.30
2022-09-10T16:23:43.404Z,10.00
2022-09-10T16:26:12.734Z,10.80
2022-09-10T16:28:39.572Z,12.80
2022-09-10T16:31:15.098Z,11.10
2022-09-10T16:33:42.809Z,8.60
2022-09-10T16:36:10.108Z,7.90
2022-09-10T16:38:37.026Z,10.00
2022-09-10T16:41:06.332Z,8.00
2022-09-10T16:43:36.696Z,8.30
2022-09-10T16:46:08.424Z,11.10
2022-09-10T16:48:36.785Z,10.70
2022-09-10T16:51:04.962Z,12.10
2022-09-10T16:53:31.393Z,10.30
2022-09-10T16:56:02.039Z,12.20
2022-09-10T16:58:32.880Z,12.50
2022-09-10T17:01:04.631Z,11.90
2022-09-10T17:03:31.900Z,11.50
2022-09-10T17:05:59.609Z,14.10
2022-09-10T17:08:28.567Z,14.80
2022-09-10T17:10:56.332Z,15.70
2022-09-10T17:13:22.885Z,13.80
2022-09-10T17:15:49.852Z,14.60
2022-09-10T17:18:16.613Z,13.80
2022-09-10T17:20:43.419Z,14.90
2022-09-10T17:23:11.409Z,12.80
2022-09-10T17:25:37.934Z,14.80
2022-09-10T17:28:05.346Z,13.10
2022-09-10T17:30:31.932Z,14.70
2022-09-10T17:32:58.504Z,17.90
2022-09-10T17:35:26.038Z,17.40
2022-09-10T17:37:52.889Z,18.80
2022-09-10T17:40:19.428Z,19.30
2022-09-10T17:42:49.142Z,23.00
2022-09-10T17:45:15.994Z,24.30
2022-09-10T17:47:42.739Z,27.60
2022-09-10T17:50:09.590Z,29.50
2022-09-10T17:52:36.129Z,27.20
2022-09-10T17:55:02.873Z,24.50
2022-09-10T17:57:30.331Z,30.00
2022-09-10T17:59:56.979Z,26.70
2022-09-10T18:02:23.847Z,26.00
2022-09-10T18:05:09.304Z,27.40
2022-09-10T18:07:41.785Z,31.10
2022-09-10T18:10:08.430Z,28.30
2022-09-10T18:12:35.374Z,31.70
2022-09-10T18:15:02.123Z,25.80
2022-09-10T18:17:28.765Z,23.30
2022-09-10T18:19:55.410Z,23.00
2022-09-10T18:22:22.047Z,20.90
2022-09-10T18:24:48.689Z,20.50
2022-09-10T18:27:15.338Z,17.90
2022-09-10T18:29:42.062Z,18.10
2022-09-10T18:32:09.034Z,21.50
2022-09-10T18:34:35.983Z,25.80
2022-09-10T18:37:03.398Z,25.70
2022-09-10T18:39:31.855Z,23.50
2022-09-10T18:41:58.876Z,22.70
2022-09-10T18:44:29.000Z,25.60
2022-09-10T18:46:56.260Z,21.50
2022-09-10T18:49:24.742Z,21.80
2022-09-10T18:51:53.000Z,22.80
2022-09-10T18:54:21.273Z,31.80
2022-09-10T18:56:49.372Z,23.00
2022-09-10T18:59:18.951Z,29.90
2022-09-10T19:01:46.884Z,26.20
2022-09-10T19:04:16.647Z,27.80
2022-09-10T19:06:45.361Z,33.20
2022-09-10T19:09:14.834Z,40.20
2022-09-10T19:11:44.561Z,36.10
2022-09-10T19:14:19.997Z,38.30
2022-09-10T19:16:48.015Z,35.80
2022-09-10T19:19:27.166Z,34.00
2022-09-10T19:21:59.687Z,37.30
2022-09-10T19:24:44.117Z,48.10
2022-09-10T19:27:12.979Z,46.60
2022-09-10T19:29:39.626Z,40.70
2022-09-10T19:32:06.357Z,45.10
2022-09-10T19:34:32.996Z,44.90
2022-09-10T19:37:00.045Z,40.50
2022-09-10T19:39:26.752Z,42.70
2022-09-10T19:41:53.534Z,65.80
2022-09-10T19:44:20.382Z,78.60
2022-09-10T19:46:47.252Z,69.40
2022-09-10T19:49:13.870Z,67.00
2022-09-10T19:51:40.619Z,91.60
2022-09-10T19:54:08.077Z,76.70
2022-09-10T19:56:37.968Z,71.20
2022-09-10T19:59:05.150Z,69.90
2022-09-10T20:01:33.381Z,62.90
2022-09-10T20:04:01.270Z,108.60
2022-09-10T20:06:30.538Z,55.40
2022-09-10T20:08:57.864Z,68.90
2022-09-10T20:11:27.590Z,51.50
2022-09-10T20:14:03.843Z,47.80
2022-09-10T20:16:30.791Z,41.10
2022-09-10T20:18:57.334Z,25.90
2022-09-10T20:21:26.654Z,25.50
2022-09-10T20:23:55.207Z,26.50
2022-09-10T20:26:33.029Z,23.60
2022-09-10T20:29:02.222Z,25.60
2022-09-10T20:31:30.659Z,24.30
2022-09-10T20:33:59.990Z,23.10
2022-09-10T20:36:27.932Z,25.00
2022-09-10T20:38:56.169Z,23.50
2022-09-10T20:41:23.546Z,22.20
2022-09-10T20:43:51.400Z,22.90
2022-09-10T20:46:19.453Z,30.50
2022-09-10T20:48:49.163Z,33.50
2022-09-10T20:51:17.111Z,29.00
2022-09-10T20:53:44.258Z,29.60
2022-09-10T20:56:13.044Z,31.90
2022-09-10T20:58:40.986Z,32.40
2022-09-10T21:01:10.714Z,29.70
2022-09-10T21:03:38.623Z,29.60
2022-09-10T21:06:05.674Z,31.70
2022-09-10T21:08:32.458Z,33.00
2022-09-10T21:11:07.083Z,32.20
2022-09-10T21:13:35.088Z,35.10
2022-09-10T21:16:09.130Z,42.10
2022-09-10T21:18:36.597Z,37.40
2022-09-10T21:21:11.407Z,32.10
2022-09-10T21:23:45.389Z,30.90
2022-09-10T21:26:13.164Z,33.70
2022-09-10T21:28:41.032Z,30.30
2022-09-10T21:31:09.356Z,29.70
2022-09-10T21:33:36.763Z,28.50
2022-09-10T21:36:08.554Z,29.50
2022-09-10T21:38:35.987Z,27.90
2022-09-10T21:41:04.730Z,28.00
2022-09-10T21:43:33.090Z,32.20
2022-09-10T21:46:01.746Z,27.70
2022-09-10T21:48:29.725Z,25.20
2022-09-10T21:51:05.574Z,28.40
2022-09-10T21:53:34.322Z,25.20
2022-09-10T21:56:02.895Z,27.70
2022-09-10T21:58:32.994Z,28.40
2022-09-10T22:01:00.400Z,28.30
2022-09-10T22:03:31.732Z,32.60
2022-09-10T22:06:13.434Z,30.00
2022-09-10T22:08:45.135Z,27.50
2022-09-10T22:11:33.667Z,31.00
2022-09-10T22:14:05.903Z,29.60
2022-09-10T22:16:34.314Z,27.90
2022-09-10T22:19:02.947Z,31.50
2022-09-10T22:21:30.250Z,28.10
2022-09-10T22:23:56.732Z,24.30
2022-09-10T22:26:25.779Z,27.00
2022-09-10T22:28:54.060Z,31.60
2022-09-10T22:31:23.866Z,30.30
2022-09-10T22:33:59.117Z,32.10
2022-09-10T22:36:28.235Z,28.30
2022-09-10T22:38:57.814Z,33.40
2022-09-10T22:41:24.446Z,30.90
2022-09-10T22:43:51.145Z,29.40
2022-09-10T22:46:18.695Z,31.80
2022-09-10T22:48:45.921Z,34.60
2022-09-10T22:51:15.851Z,34.80
2022-09-10T22:53:43.849Z,36.40
2022-09-10T22:56:12.373Z,33.80
2022-09-10T22:58:39.658Z,31.40
2022-09-10T23:01:12.995Z,34.50
2022-09-10T23:03:40.468Z,35.80
2022-09-10T23:06:13.326Z,32.10
2022-09-10T23:08:39.995Z,30.90
2022-09-10T23:11:12.282Z,30.10
2022-09-10T23:13:39.135Z,33.30
2022-09-10T23:16:10.363Z,32.10
2022-09-10T23:18:38.674Z,32.10
2022-09-10T23:21:06.254Z,33.80
2022-09-10T23:23:33.488Z,28.30
2022-09-10T23:26:08.115Z,28.60
2022-09-10T23:28:35.918Z,28.60
2022-09-10T23:31:10.470Z,27.50
2022-09-10T23:33:37.160Z,28.30
2022-09-10T23:36:03.944Z,24.50
2022-09-10T23:38:30.545Z,24.00
2022-09-10T23:40:59.788Z,22.40
2022-09-10T23:43:27.445Z,26.40
2022-09-10T23:45:54.765Z,26.80
2022-09-10T23:48:22.155Z,25.00
2022-09-10T23:50:48.673Z,28.90
2022-09-10T23:53:15.208Z,21.90
2022-09-10T23:55:41.750Z,19.00
2022-09-10T23:58:08.288Z,24.10
